Stena Europe — VSTA3 — position and weather

sailwx.info

Track history (hours):
 
Tides and Currents Weather Stations Pressure Air Temp Water Temp Dewpoint Dewpoint Depression Visibility Wind Speed Wind Dir Waves Ship Positions

Stena Europe

Operator: Stena Line

Last reported at 2020-Jan-25 03:30 UTC. Time now 2020-Jan-25 04:29 UTC.
Position N 52°14' W 006°16'.

Length 149 m; draft 6 m.

Type: Passenger vessel. MMSI: 235004539.

Date/timePositionNaut miles runAvg speedWind from/ knotsBaromVisibWave heightAir tempDewpointWater temp
2020-Jan-25 03:30N 52°14' W 006°16'23 2.9
2020-Jan-24 19:30N 52°09' W 005°38'22 6.2
2020-Jan-24 16:00N 52°14' W 006°13'1717.4
2020-Jan-24 15:00N 52°10' W 005°45'22 2.9
2020-Jan-24 07:30N 52°15' W 006°20'0 0.0
2020-Jan-24 06:59N 52°15' W 006°20'3 1.0
2020-Jan-24 03:31N 52°14' W 006°15'1514.8
2020-Jan-24 02:30N 52°10' W 005°52'18 1.8
2020-Jan-23 16:30N 52°15' W 006°20'1211.9
2020-Jan-23 15:30N 52°12' W 006°02'12 1.2
2020-Jan-23 05:59N 52°15' W 006°20'0 0.0
2020-Jan-23 05:29N 52°15' W 006°20'9 0.9
2020-Jan-22 18:45N 52°13' W 006°05'9 0.3
2020-Jan-21 07:29N 52°15' W 006°20'0 0.0
2020-Jan-21 06:59N 52°15' W 006°20'0 0.0
2020-Jan-21 04:00N 52°15' W 006°20'4 8.1
2020-Jan-21 03:30N 52°14' W 006°14'713.8
2020-Jan-21 03:00N 52°13' W 006°03'11 1.3
2020-Jan-20 18:30N 52°15' W 006°20'0 0.0
2020-Jan-20 17:01N 52°15' W 006°20'2512.4
2020-Jan-20 15:00N 52°10' W 005°40'6 1.0
2020-Jan-20 09:05N 52°10' W 005°51'117.5
2020-Jan-20 09:00N 52°11' W 005°53'17 8.7
2020-Jan-20 07:00N 52°15' W 006°20'0 0.0
2020-Jan-20 06:00N 52°15' W 006°20'0 0.0
2020-Jan-20 05:30N 52°15' W 006°20'0 0.0
2020-Jan-20 05:00N 52°15' W 006°20'5 3.2
2020-Jan-20 03:30N 52°14' W 006°13'1615.7
2020-Jan-20 02:30N 52°10' W 005°48'19 2.6
2020-Jan-19 19:00N 52°15' W 006°18'1 2.7
2020-Jan-19 18:31N 52°15' W 006°20'6 3.1
2020-Jan-19 16:30N 52°14' W 006°11'  
2020-Jan-16 17:30N 52°13' W 006°06'714.9
2020-Jan-16 17:00N 52°11' W 005°55'4 0.2
2020-Jan-15 20:00N 52°12' W 006°01'816.5
2020-Jan-15 19:30N 52°14' W 006°14'4 2.6
2020-Jan-15 18:00N 52°15' W 006°20'21 2.5
2020-Jan-15 09:23N 52°11' W 005°47'1516.5
2020-Jan-15 08:30N 52°13' W 006°10'9 2.7
2020-Jan-15 05:00N 52°12' W 005°55'  
Track history (hours):
 
Tides and Currents Weather Stations Pressure Air Temp Water Temp Dewpoint Dewpoint Depression Visibility Wind Speed Wind Dir Waves Ship Positions

Stena Europe

Operator: Stena Line

Last reported at 2020-Jan-25 03:30 UTC. Time now 2020-Jan-25 04:29 UTC.
Position N 52°14' W 006°16'.

Length 149 m; draft 6 m.

Type: Passenger vessel. MMSI: 235004539.

Date/timePositionNaut miles runAvg speedWind from/ knotsBaromVisibWave heightAir tempDewpointWater temp
2020-Jan-25 03:30N 52°14' W 006°16'23 2.9
2020-Jan-24 19:30N 52°09' W 005°38'22 6.2
2020-Jan-24 16:00N 52°14' W 006°13'1717.4
2020-Jan-24 15:00N 52°10' W 005°45'22 2.9
2020-Jan-24 07:30N 52°15' W 006°20'0 0.0
2020-Jan-24 06:59N 52°15' W 006°20'3 1.0
2020-Jan-24 03:31N 52°14' W 006°15'1514.8
2020-Jan-24 02:30N 52°10' W 005°52'18 1.8
2020-Jan-23 16:30N 52°15' W 006°20'1211.9
2020-Jan-23 15:30N 52°12' W 006°02'12 1.2
2020-Jan-23 05:59N 52°15' W 006°20'0 0.0
2020-Jan-23 05:29N 52°15' W 006°20'9 0.9
2020-Jan-22 18:45N 52°13' W 006°05'9 0.3
2020-Jan-21 07:29N 52°15' W 006°20'0 0.0
2020-Jan-21 06:59N 52°15' W 006°20'0 0.0
2020-Jan-21 04:00N 52°15' W 006°20'4 8.1
2020-Jan-21 03:30N 52°14' W 006°14'713.8
2020-Jan-21 03:00N 52°13' W 006°03'11 1.3
2020-Jan-20 18:30N 52°15' W 006°20'0 0.0
2020-Jan-20 17:01N 52°15' W 006°20'2512.4
2020-Jan-20 15:00N 52°10' W 005°40'6 1.0
2020-Jan-20 09:05N 52°10' W 005°51'117.5
2020-Jan-20 09:00N 52°11' W 005°53'17 8.7
2020-Jan-20 07:00N 52°15' W 006°20'0 0.0
2020-Jan-20 06:00N 52°15' W 006°20'0 0.0
2020-Jan-20 05:30N 52°15' W 006°20'0 0.0
2020-Jan-20 05:00N 52°15' W 006°20'5 3.2
2020-Jan-20 03:30N 52°14' W 006°13'1615.7
2020-Jan-20 02:30N 52°10' W 005°48'19 2.6
2020-Jan-19 19:00N 52°15' W 006°18'1 2.7
2020-Jan-19 18:31N 52°15' W 006°20'6 3.1
2020-Jan-19 16:30N 52°14' W 006°11'  
2020-Jan-16 17:30N 52°13' W 006°06'714.9
2020-Jan-16 17:00N 52°11' W 005°55'4 0.2
2020-Jan-15 20:00N 52°12' W 006°01'816.5
2020-Jan-15 19:30N 52°14' W 006°14'4 2.6
2020-Jan-15 18:00N 52°15' W 006°20'21 2.5
2020-Jan-15 09:23N 52°11' W 005°47'1516.5
2020-Jan-15 08:30N 52°13' W 006°10'9 2.7
2020-Jan-15 05:00N 52°12' W 005°55'  

Dump ship's entire track history